Time;durP1;ratioP1;P1;durP2;ratioP2;P2;SDS_P1;SDS_P2;PMS_P1;PMS_P2;Temp;Humidity;BMP_temperature;BMP_pressure;BME280_temperature;BME280_humidity;BME280_pressure;Samples;Min_cycle;Max_cycle;Signal;HPM_P1;HPM_P2
2022/09/06 00:00:14;;;;;;;1.95;1.15;;;14.70;22.80;;;;;;5095906;28;20047;-59
2022/09/06 00:02:40;;;;;;;3.70;0.90;;;14.70;22.80;;;;;;5111830;28;20031;-60
2022/09/06 00:05:07;;;;;;;3.55;1.20;;;14.70;22.90;;;;;;5095680;28;20048;-60
2022/09/06 00:07:33;;;;;;;2.78;0.98;;;14.70;22.70;;;;;;5111646;28;20065;-59
2022/09/06 00:10:00;;;;;;;2.13;1.08;;;14.80;22.80;;;;;;5094589;28;20085;-60
2022/09/06 00:12:25;;;;;;;2.63;1.05;;;14.70;22.70;;;;;;5111426;27;20108;-60
2022/09/06 00:14:51;;;;;;;4.65;1.00;;;14.70;22.80;;;;;;5093640;28;20506;-60
2022/09/06 00:17:16;;;;;;;2.03;1.15;;;14.70;22.80;;;;;;5110200;28;20519;-60
2022/09/06 00:19:42;;;;;;;4.63;1.10;;;14.70;22.70;;;;;;5092315;28;20024;-60
2022/09/06 00:22:08;;;;;;;3.75;0.95;;;14.70;22.90;;;;;;5111432;28;20051;-60
2022/09/06 00:24:33;;;;;;;1.25;0.80;;;14.60;22.90;;;;;;5085221;28;20130;-59
2022/09/06 00:26:59;;;;;;;1.63;1.10;;;14.60;23.20;;;;;;5111351;28;20415;-60
2022/09/06 00:29:24;;;;;;;1.45;0.90;;;14.60;23.40;;;;;;5091195;28;20043;-60
2022/09/06 00:31:50;;;;;;;3.00;1.20;;;14.50;23.60;;;;;;5108933;28;20032;-60
2022/09/06 00:34:15;;;;;;;2.20;0.93;;;14.50;23.70;;;;;;5097219;28;20035;-59
2022/09/06 00:36:41;;;;;;;4.13;0.90;;;14.40;23.80;;;;;;5109751;28;20115;-60
2022/09/06 00:39:06;;;;;;;4.55;1.10;;;14.40;24.00;;;;;;5110981;28;20039;-60
2022/09/06 00:41:32;;;;;;;1.83;0.90;;;14.30;24.30;;;;;;5089587;28;20028;-60
2022/09/06 00:43:57;;;;;;;2.45;1.35;;;14.30;24.50;;;;;;5110328;28;20110;-59
2022/09/06 00:46:27;;;;;;;1.52;0.90;;;14.20;24.60;;;;;;5089473;28;20024;-60
2022/09/06 00:49:07;;;;;;;4.68;1.63;;;14.10;24.70;;;;;;5070713;28;20696;-60
2022/09/06 00:51:34;;;;;;;1.60;1.25;;;14.10;25.20;;;;;;5102941;28;20035;-59
2022/09/06 00:54:05;;;;;;;3.88;1.10;;;14.00;25.20;;;;;;5110867;28;20431;-60
2022/09/06 00:56:33;;;;;;;1.90;1.42;;;14.00;25.40;;;;;;5089005;27;20039;-60
2022/09/06 00:58:59;;;;;;;3.75;0.90;;;14.00;25.50;;;;;;5110325;28;20035;-60
2022/09/06 01:01:25;;;;;;;2.78;1.15;;;13.90;25.90;;;;;;5088855;28;20059;-59
2022/09/06 01:03:51;;;;;;;3.30;1.17;;;13.90;25.70;;;;;;5110183;28;20027;-60
2022/09/06 01:06:16;;;;;;;1.42;0.90;;;13.80;26.30;;;;;;5088745;28;20032;-60
2022/09/06 01:09:21;;;;;;;3.58;1.02;;;13.80;26.10;;;;;;5109692;28;20036;-60
2022/09/06 01:12:11;;;;;;;3.00;0.90;;;13.80;26.80;;;;;;5105157;28;20028;-60
2022/09/06 01:15:18;;;;;;;1.40;0.90;;;13.70;26.70;;;;;;5068342;28;20024;-60
2022/09/06 01:18:05;;;;;;;2.70;1.10;;;13.60;27.40;;;;;;5110442;28;20428;-60
2022/09/06 01:21:19;;;;;;;1.83;1.00;;;13.60;27.50;;;;;;5082931;28;20024;-60
2022/09/06 01:24:11;;;;;;;1.55;0.98;;;13.60;27.80;;;;;;5088594;28;20053;-60
2022/09/06 01:26:57;;;;;;;2.08;1.27;;;13.60;28.50;;;;;;5100948;28;20020;-60
2022/09/06 01:29:46;;;;;;;1.70;1.05;;;13.50;28.30;;;;;;5069481;28;20036;-60
2022/09/06 01:32:39;;;;;;;3.25;0.90;;;13.60;28.50;;;;;;5069821;28;20037;-60
2022/09/06 01:35:07;;;;;;;3.22;0.93;;;13.50;28.90;;;;;;5093281;28;20048;-60
2022/09/06 01:37:33;;;;;;;2.08;1.17;;;13.50;29.10;;;;;;5109495;28;20027;-60
2022/09/06 01:39:58;;;;;;;2.63;1.30;;;13.50;29.00;;;;;;5090307;28;20032;-60
2022/09/06 01:42:30;;;;;;;2.45;0.90;;;13.40;29.30;;;;;;5109973;28;20032;-60
2022/09/06 01:45:09;;;;;;;1.52;1.05;;;13.40;29.80;;;;;;5089401;28;20028;-60
2022/09/06 01:47:57;;;;;;;1.98;1.00;;;13.40;30.00;;;;;;5109695;28;20047;-60
2022/09/06 01:50:53;;;;;;;2.90;1.10;;;13.40;29.70;;;;;;5078285;28;20023;-60
2022/09/06 01:53:42;;;;;;;6.70;1.40;;;13.40;30.90;;;;;;5067683;28;20507;-60
2022/09/06 01:56:34;;;;;;;4.82;1.30;;;13.30;31.40;;;;;;5107433;28;20043;-60
2022/09/06 01:59:19;;;;;;;1.70;1.00;;;13.30;31.80;;;;;;5068758;28;20028;-60
2022/09/06 02:02:20;;;;;;;1.90;1.08;;;13.30;31.90;;;;;;5100450;28;20514;-60
2022/09/06 02:04:57;;;;;;;2.67;1.10;;;13.30;32.70;;;;;;5067348;28;20041;-60
2022/09/06 02:07:26;;;;;;;4.00;1.48;;;13.30;33.00;;;;;;5068897;28;20385;-59
2022/09/06 02:09:57;;;;;;;5.72;1.20;;;13.20;33.60;;;;;;5106886;28;20066;-60
2022/09/06 02:12:26;;;;;;;5.78;1.30;;;13.20;33.90;;;;;;5108076;28;20031;-60
2022/09/06 02:14:57;;;;;;;1.73;1.00;;;13.20;34.50;;;;;;5087182;28;20028;-59
2022/09/06 02:17:29;;;;;;;1.48;0.98;;;13.20;34.20;;;;;;5109229;28;20224;-60
2022/09/06 02:20:11;;;;;;;3.03;0.82;;;13.10;34.10;;;;;;5068191;28;20182;-59
2022/09/06 02:22:42;;;;;;;2.70;1.20;;;13.10;36.40;;;;;;5102916;28;20024;-60
2022/09/06 02:25:11;;;;;;;1.70;1.00;;;13.10;36.80;;;;;;5089296;28;20040;-59
2022/09/06 02:27:37;;;;;;;2.55;1.08;;;13.00;37.10;;;;;;5109036;28;20023;-60
2022/09/06 02:30:04;;;;;;;3.92;1.17;;;13.00;37.60;;;;;;5087404;28;20408;-59
2022/09/06 02:32:36;;;;;;;3.25;1.05;;;13.00;38.10;;;;;;5109182;28;20032;-59
2022/09/06 02:35:10;;;;;;;3.38;1.17;;;13.00;38.60;;;;;;5069175;28;20052;-59
2022/09/06 02:37:36;;;;;;;2.90;1.13;;;12.90;38.50;;;;;;5109283;28;20134;-60
2022/09/06 02:40:02;;;;;;;2.03;1.20;;;12.90;40.00;;;;;;5088152;28;20111;-60
2022/09/06 02:42:27;;;;;;;5.43;1.40;;;13.00;39.70;;;;;;5109217;28;20016;-60
2022/09/06 02:44:52;;;;;;;2.38;1.10;;;12.90;40.80;;;;;;5089096;28;20381;-60
2022/09/06 02:47:18;;;;;;;2.38;1.40;;;12.90;40.80;;;;;;5107034;28;20568;-60
2022/09/06 02:49:43;;;;;;;3.28;1.33;;;12.90;41.20;;;;;;5092455;28;20032;-59
2022/09/06 02:52:09;;;;;;;4.45;1.48;;;12.90;41.20;;;;;;5110458;28;20059;-60
2022/09/06 02:54:34;;;;;;;3.17;1.70;;;12.90;42.00;;;;;;5112890;28;20042;-60
2022/09/06 02:57:00;;;;;;;2.47;1.20;;;12.80;41.90;;;;;;5091227;28;20069;-60
2022/09/06 02:59:25;;;;;;;2.65;1.30;;;12.80;42.30;;;;;;5112502;28;20491;-59
2022/09/06 03:01:51;;;;;;;3.75;1.08;;;12.90;42.80;;;;;;5091300;28;20031;-59
2022/09/06 03:04:16;;;;;;;2.78;1.30;;;12.80;42.10;;;;;;5112414;28;20418;-59
2022/09/06 03:06:42;;;;;;;1.65;1.40;;;12.80;43.40;;;;;;5091034;28;20031;-59
2022/09/06 03:09:09;;;;;;;4.90;1.40;;;12.80;43.60;;;;;;5112187;28;20034;-59
2022/09/06 03:11:35;;;;;;;2.58;1.17;;;12.80;43.40;;;;;;5091005;28;20032;-60
2022/09/06 03:14:00;;;;;;;2.10;1.15;;;12.80;44.00;;;;;;5111930;28;20076;-59
2022/09/06 03:16:26;;;;;;;2.25;1.17;;;12.80;44.10;;;;;;5091268;28;20032;-60
2022/09/06 03:18:51;;;;;;;1.98;1.20;;;12.80;45.20;;;;;;5111849;28;20020;-60
2022/09/06 03:21:17;;;;;;;2.40;1.30;;;12.80;45.50;;;;;;5101017;28;20051;-59
2022/09/06 03:23:42;;;;;;;4.68;1.40;;;12.70;45.70;;;;;;5088655;28;20564;-61
2022/09/06 03:26:07;;;;;;;3.67;1.30;;;12.70;46.00;;;;;;5109735;28;20046;-60
2022/09/06 03:28:33;;;;;;;2.38;1.27;;;12.70;45.90;;;;;;5090802;28;20388;-61
2022/09/06 03:30:59;;;;;;;3.33;1.38;;;12.70;46.40;;;;;;5109596;28;20019;-60
2022/09/06 03:33:24;;;;;;;2.30;1.40;;;12.70;46.70;;;;;;5112768;28;20027;-52
2022/09/06 03:35:56;;;;;;;1.67;1.15;;;12.70;47.00;;;;;;5096693;28;20255;-53
2022/09/06 03:38:23;;;;;;;2.20;1.00;;;12.80;46.80;;;;;;5112258;28;20483;-54
2022/09/06 03:40:49;;;;;;;2.58;1.02;;;12.80;47.00;;;;;;5096364;28;20131;-53
2022/09/06 03:43:16;;;;;;;2.72;1.20;;;12.80;45.90;;;;;;5111995;28;20035;-50
2022/09/06 03:45:50;;;;;;;3.50;1.10;;;12.80;46.90;;;;;;5095065;28;20110;-51
2022/09/06 03:48:18;;;;;;;6.07;1.88;;;12.90;47.00;;;;;;5112063;28;20531;-52
2022/09/06 03:50:48;;;;;;;1.85;1.20;;;12.90;46.70;;;;;;5094966;28;20122;-52
2022/09/06 03:53:14;;;;;;;2.10;1.38;;;12.90;46.70;;;;;;5111798;28;20031;-51
2022/09/06 03:55:44;;;;;;;2.67;1.40;;;12.90;46.60;;;;;;5094036;28;20032;-52
2022/09/06 03:58:09;;;;;;;3.30;1.02;;;12.90;46.70;;;;;;5111906;28;20047;-52
2022/09/06 04:00:35;;;;;;;4.03;1.67;;;12.90;47.00;;;;;;5093032;28;20372;-53
2022/09/06 04:03:01;;;;;;;3.55;1.35;;;12.80;46.70;;;;;;5111760;28;20121;-48
2022/09/06 04:05:26;;;;;;;2.78;1.30;;;12.80;47.10;;;;;;5091959;28;20535;-51
2022/09/06 04:07:52;;;;;;;3.80;1.60;;;12.80;46.50;;;;;;5111922;28;20024;-51
2022/09/06 04:10:17;;;;;;;1.45;1.15;;;12.80;47.40;;;;;;5090427;28;20028;-55
2022/09/06 04:12:44;;;;;;;4.72;1.30;;;12.80;47.40;;;;;;5111888;28;20030;-54
2022/09/06 04:15:09;;;;;;;1.63;1.20;;;12.80;47.80;;;;;;5091871;28;20024;-54
2022/09/06 04:17:35;;;;;;;2.35;1.42;;;12.80;47.70;;;;;;5109273;28;20100;-53
2022/09/06 04:20:00;;;;;;;3.33;1.38;;;12.80;47.70;;;;;;5091828;28;20025;-51
2022/09/06 04:22:26;;;;;;;3.05;1.38;;;12.80;47.90;;;;;;5108828;28;20441;-49
2022/09/06 04:24:51;;;;;;;3.70;1.38;;;12.80;47.60;;;;;;5105052;28;20023;-54
2022/09/06 04:27:17;;;;;;;3.00;1.55;;;12.80;47.90;;;;;;5089864;28;20040;-52
2022/09/06 04:29:43;;;;;;;1.45;1.00;;;12.80;47.70;;;;;;5110519;28;20040;-49
2022/09/06 04:32:08;;;;;;;4.10;1.27;;;12.80;48.20;;;;;;5089953;28;20436;-55
2022/09/06 04:34:34;;;;;;;2.40;1.20;;;12.80;47.80;;;;;;5101547;28;20086;-54
2022/09/06 04:36:59;;;;;;;6.07;1.33;;;12.80;48.10;;;;;;5105005;28;20031;-54
2022/09/06 04:39:24;;;;;;;2.97;1.17;;;12.80;47.90;;;;;;5093641;28;20062;-53
2022/09/06 04:41:50;;;;;;;1.55;1.10;;;12.90;47.70;;;;;;5108653;28;20031;-53
2022/09/06 04:44:15;;;;;;;2.45;1.55;;;12.90;47.90;;;;;;5096632;28;20036;-56
2022/09/06 04:46:41;;;;;;;2.05;1.23;;;12.90;47.10;;;;;;5108528;28;20039;-52
2022/09/06 04:49:07;;;;;;;2.08;1.40;;;13.00;47.40;;;;;;5108312;28;20096;-49
2022/09/06 04:51:32;;;;;;;1.52;1.23;;;13.00;47.30;;;;;;5098717;28;20065;-55
2022/09/06 04:53:58;;;;;;;4.38;1.10;;;13.00;47.30;;;;;;5090964;28;20031;-54
2022/09/06 04:56:25;;;;;;;2.47;1.27;;;13.00;47.10;;;;;;5108257;28;20028;-54
2022/09/06 04:58:52;;;;;;;1.55;1.00;;;13.00;47.10;;;;;;5090774;28;20369;-55
2022/09/06 05:01:19;;;;;;;4.97;1.58;;;13.00;47.30;;;;;;5108544;28;20384;-54
2022/09/06 05:03:44;;;;;;;2.92;1.67;;;13.00;47.20;;;;;;5093034;28;20503;-52
2022/09/06 05:06:13;;;;;;;2.70;1.30;;;13.10;47.20;;;;;;5107858;28;20054;-52
2022/09/06 05:08:40;;;;;;;3.42;1.55;;;13.10;47.40;;;;;;5110842;28;20482;-53
2022/09/06 05:11:07;;;;;;;1.40;0.93;;;13.10;47.40;;;;;;5093907;28;20031;-50
2022/09/06 05:13:33;;;;;;;1.80;1.17;;;13.10;46.90;;;;;;5109979;28;20117;-54
2022/09/06 05:16:00;;;;;;;1.60;0.82;;;13.10;46.90;;;;;;5093236;28;20020;-54
2022/09/06 05:18:26;;;;;;;6.47;1.50;;;13.20;46.60;;;;;;5097415;28;20062;-55
2022/09/06 05:20:52;;;;;;;2.05;1.20;;;13.30;46.40;;;;;;5089549;28;20020;-49
2022/09/06 05:23:18;;;;;;;2.33;1.30;;;13.50;45.90;;;;;;5095680;28;20032;-54
2022/09/06 05:25:43;;;;;;;2.38;1.17;;;14.10;43.40;;;;;;5105822;28;20023;-50
2022/09/06 05:28:09;;;;;;;3.30;1.45;;;14.80;39.70;;;;;;5108353;28;20540;-56
2022/09/06 05:30:34;;;;;;;2.65;1.40;;;15.60;36.00;;;;;;5085784;28;20072;-53
2022/09/06 05:33:00;;;;;;;1.70;1.20;;;16.10;33.40;;;;;;5088428;28;20020;-54
2022/09/06 05:35:25;;;;;;;3.05;1.33;;;16.70;31.90;;;;;;5108152;28;20051;-52
2022/09/06 05:37:51;;;;;;;2.35;1.33;;;16.50;30.40;;;;;;5107309;28;20123;-53
2022/09/06 05:40:16;;;;;;;1.83;1.30;;;16.70;29.80;;;;;;5088997;28;20404;-51
2022/09/06 05:42:42;;;;;;;3.15;1.38;;;17.20;28.50;;;;;;5106354;28;20051;-54
2022/09/06 05:45:08;;;;;;;2.30;1.20;;;17.40;28.10;;;;;;5108653;28;20399;-52
2022/09/06 05:47:34;;;;;;;3.35;1.70;;;17.10;27.60;;;;;;5087262;28;20028;-53
2022/09/06 05:50:00;;;;;;;2.97;1.30;;;17.20;27.10;;;;;;5101995;28;20032;-55
2022/09/06 05:52:26;;;;;;;3.08;1.10;;;17.50;26.60;;;;;;5086042;28;20020;-51
2022/09/06 05:54:52;;;;;;;3.03;1.27;;;17.60;26.90;;;;;;5093599;28;20039;-54
2022/09/06 05:57:17;;;;;;;2.60;1.45;;;17.80;26.20;;;;;;5085759;28;20028;-52
2022/09/06 05:59:42;;;;;;;2.25;1.48;;;18.00;25.80;;;;;;5107827;28;20042;-52
2022/09/06 06:02:08;;;;;;;2.45;1.10;;;18.70;25.40;;;;;;5086747;28;20464;-48
2022/09/06 06:04:33;;;;;;;3.15;1.25;;;19.00;22.20;;;;;;5107745;28;20046;-54
2022/09/06 06:06:59;;;;;;;5.53;1.55;;;18.90;23.30;;;;;;5086895;28;20055;-50
2022/09/06 06:09:24;;;;;;;3.58;1.48;;;19.00;21.70;;;;;;5107346;28;20027;-53
2022/09/06 06:11:50;;;;;;;1.75;1.50;;;18.90;21.60;;;;;;5097090;28;20031;-56
2022/09/06 06:14:15;;;;;;;2.88;1.27;;;19.30;21.90;;;;;;5088481;28;20491;-56
2022/09/06 06:16:41;;;;;;;3.72;1.33;;;19.50;22.10;;;;;;5105518;28;20031;-53
2022/09/06 06:19:06;;;;;;;1.92;1.20;;;19.80;20.00;;;;;;5087488;28;20036;-54
2022/09/06 06:21:33;;;;;;;3.05;1.20;;;19.70;20.80;;;;;;5105600;28;20027;-55
2022/09/06 06:24:00;;;;;;;4.43;1.23;;;20.00;19.90;;;;;;5086254;28;20027;-56
2022/09/06 06:26:27;;;;;;;1.33;0.90;;;19.90;18.70;;;;;;5105468;28;20031;-55
2022/09/06 06:28:54;;;;;;;1.80;1.45;;;20.30;18.70;;;;;;5108359;28;20519;-54
2022/09/06 06:31:21;;;;;;;1.85;1.17;;;20.00;18.30;;;;;;5091496;28;20088;-56
2022/09/06 06:33:47;;;;;;;1.88;1.20;;;19.40;19.40;;;;;;5105555;28;20073;-54
2022/09/06 06:36:12;;;;;;;1.23;0.90;;;19.20;20.10;;;;;;5090241;28;20023;-52
2022/09/06 06:38:40;;;;;;;4.97;1.13;;;19.60;20.60;;;;;;5107774;28;20543;-53
2022/09/06 06:41:07;;;;;;;1.48;1.25;;;20.10;18.30;;;;;;5087955;28;20493;-49
2022/09/06 06:43:36;;;;;;;2.20;1.33;;;20.20;17.70;;;;;;5108086;28;20020;-53
2022/09/06 06:46:09;;;;;;;5.20;1.38;;;20.10;17.70;;;;;;5088166;28;20491;-48
2022/09/06 06:48:36;;;;;;;3.17;1.27;;;20.30;17.40;;;;;;5107511;28;20027;-52
2022/09/06 06:51:02;;;;;;;3.80;1.20;;;20.40;17.50;;;;;;5087995;28;20039;-50
2022/09/06 06:53:28;;;;;;;4.38;1.05;;;20.10;17.10;;;;;;5107864;28;20425;-52
2022/09/06 06:55:54;;;;;;;3.40;1.25;;;20.00;17.70;;;;;;5087309;28;20508;-51
2022/09/06 06:58:19;;;;;;;5.20;1.40;;;20.60;16.80;;;;;;5107932;28;20034;-55
2022/09/06 07:00:46;;;;;;;1.70;1.35;;;20.90;16.30;;;;;;5087788;28;20258;-54
2022/09/06 07:03:12;;;;;;;1.48;1.20;;;21.10;16.70;;;;;;5087583;28;20373;-52
2022/09/06 07:05:39;;;;;;;2.20;1.35;;;21.60;14.40;;;;;;5106831;28;20026;-55
2022/09/06 07:08:05;;;;;;;2.35;1.60;;;21.60;15.20;;;;;;5084969;28;20339;-52
2022/09/06 07:10:31;;;;;;;2.97;1.27;;;22.40;14.10;;;;;;5087183;28;20036;-52
2022/09/06 07:12:57;;;;;;;1.65;1.33;;;22.80;13.50;;;;;;5105032;28;20031;-53
2022/09/06 07:15:23;;;;;;;3.45;1.77;;;22.70;11.80;;;;;;5107579;28;20031;-52
2022/09/06 07:17:48;;;;;;;2.95;1.30;;;22.00;12.10;;;;;;5085990;28;20094;-53
2022/09/06 07:20:14;;;;;;;2.55;1.58;;;21.90;12.70;;;;;;5106606;28;20399;-53
2022/09/06 07:22:39;;;;;;;3.90;1.70;;;21.90;14.40;;;;;;5082770;28;20502;-53
2022/09/06 07:25:07;;;;;;;1.48;1.38;;;21.90;12.80;;;;;;5107460;28;20027;-56
2022/09/06 07:27:32;;;;;;;3.25;1.55;;;21.60;13.50;;;;;;5086016;28;20054;-50
2022/09/06 07:29:58;;;;;;;1.88;1.40;;;21.40;15.10;;;;;;5106570;28;20430;-48
2022/09/06 07:32:24;;;;;;;2.15;1.20;;;22.10;13.00;;;;;;5085911;28;20051;-60
2022/09/06 07:34:49;;;;;;;3.15;1.30;;;22.60;14.20;;;;;;5095784;28;20538;-60
2022/09/06 07:37:15;;;;;;;2.78;1.50;;;22.90;11.40;;;;;;5108425;28;20035;-60
2022/09/06 07:39:40;;;;;;;2.55;1.60;;;22.50;12.70;;;;;;5111574;28;20428;-60
2022/09/06 07:42:06;;;;;;;1.45;1.25;;;22.30;12.60;;;;;;5097986;28;20019;-61
2022/09/06 07:44:32;;;;;;;3.30;1.80;;;22.00;13.50;;;;;;5091292;28;20066;-60
2022/09/06 07:46:57;;;;;;;5.20;1.83;;;21.80;13.90;;;;;;5108163;28;20059;-60
2022/09/06 07:49:23;;;;;;;3.78;1.80;;;21.20;13.80;;;;;;5091011;28;20047;-60
2022/09/06 07:51:48;;;;;;;3.33;1.65;;;20.90;14.90;;;;;;5108092;28;20034;-60
2022/09/06 07:54:14;;;;;;;2.80;1.63;;;20.80;15.60;;;;;;5110649;28;20252;-60
2022/09/06 07:56:39;;;;;;;2.33;1.85;;;20.40;16.00;;;;;;5095083;28;20038;-60
2022/09/06 07:59:05;;;;;;;3.58;1.52;;;20.40;16.70;;;;;;5110835;28;20077;-60
2022/09/06 08:01:33;;;;;;;2.63;1.80;;;20.00;17.60;;;;;;5093560;28;20051;-61
2022/09/06 08:04:07;;;;;;;4.25;1.55;;;20.00;17.40;;;;;;5110697;28;20061;-60
2022/09/06 08:06:38;;;;;;;2.67;1.65;;;20.20;17.40;;;;;;5077758;28;20027;-61
2022/09/06 08:09:06;;;;;;;2.85;1.98;;;20.30;16.80;;;;;;5110804;28;20020;-61
2022/09/06 08:11:33;;;;;;;3.03;1.60;;;20.20;17.30;;;;;;5092589;28;20039;-60
2022/09/06 08:14:00;;;;;;;10.63;2.10;;;20.20;17.60;;;;;;5109205;28;20118;-60
2022/09/06 08:16:27;;;;;;;4.47;1.75;;;19.90;17.90;;;;;;5091728;28;20015;-60
2022/09/06 08:18:55;;;;;;;5.22;1.95;;;19.70;18.60;;;;;;5110288;28;20094;-61
2022/09/06 08:21:22;;;;;;;2.25;1.77;;;20.00;18.40;;;;;;5091001;28;20047;-61
2022/09/06 08:23:53;;;;;;;3.85;2.10;;;20.20;18.00;;;;;;5094080;28;20059;-60
2022/09/06 08:26:21;;;;;;;5.25;1.70;;;20.50;17.60;;;;;;5107593;28;20031;-60
2022/09/06 08:28:47;;;;;;;3.92;1.88;;;20.50;17.30;;;;;;5110182;27;20043;-61
2022/09/06 08:31:16;;;;;;;7.70;2.03;;;20.40;18.00;;;;;;5089344;28;20036;-60
2022/09/06 08:33:43;;;;;;;2.85;1.55;;;20.30;18.20;;;;;;5106789;28;20432;-60
2022/09/06 08:36:09;;;;;;;3.08;1.73;;;20.40;18.10;;;;;;5088275;28;20669;-60
2022/09/06 08:38:36;;;;;;;2.38;1.60;;;20.50;17.90;;;;;;5110021;28;20027;-60
2022/09/06 08:41:11;;;;;;;3.83;2.10;;;20.50;18.00;;;;;;5090049;28;20021;-60
2022/09/06 08:43:38;;;;;;;2.40;1.83;;;20.70;18.20;;;;;;5089611;28;20021;-60
2022/09/06 08:46:06;;;;;;;2.05;1.60;;;20.60;17.40;;;;;;5108996;28;20264;-60
2022/09/06 08:48:35;;;;;;;2.58;1.70;;;20.30;17.80;;;;;;5109488;28;20026;-60
2022/09/06 08:51:15;;;;;;;2.80;1.85;;;20.40;17.90;;;;;;5089331;28;20123;-60
2022/09/06 08:53:47;;;;;;;3.13;1.90;;;20.40;17.40;;;;;;5069053;28;20032;-60
2022/09/06 08:56:23;;;;;;;2.20;1.70;;;20.60;17.80;;;;;;5081326;28;20043;-60
2022/09/06 08:58:55;;;;;;;1.90;1.30;;;20.70;17.10;;;;;;5108355;28;20031;-60
2022/09/06 09:01:36;;;;;;;4.70;1.30;;;20.80;17.60;;;;;;5070338;28;20021;-60
2022/09/06 09:04:05;;;;;;;2.85;1.95;;;21.10;16.20;;;;;;5109399;28;20034;-60
2022/09/06 09:06:31;;;;;;;4.85;1.63;;;20.70;16.90;;;;;;5090018;28;20500;-60
2022/09/06 09:09:07;;;;;;;2.92;1.63;;;20.50;16.70;;;;;;5101003;28;20024;-60
2022/09/06 09:11:34;;;;;;;6.78;1.90;;;20.50;17.20;;;;;;5072546;28;20141;-60
2022/09/06 09:14:39;;;;;;;2.92;1.77;;;20.50;17.20;;;;;;5110484;28;20024;-61
2022/09/06 09:17:15;;;;;;;2.70;1.85;;;20.70;17.90;;;;;;5085179;28;20028;-60
2022/09/06 09:19:41;;;;;;;2.75;1.60;;;20.50;17.30;;;;;;5106204;28;20039;-60
2022/09/06 09:22:06;;;;;;;5.68;1.52;;;20.90;17.40;;;;;;5095303;28;20020;-61
2022/09/06 09:24:32;;;;;;;2.17;1.48;;;20.70;16.80;;;;;;5087993;28;20036;-60
2022/09/06 09:27:12;;;;;;;3.05;1.60;;;20.70;17.20;;;;;;5107152;28;20055;-60
2022/09/06 09:29:53;;;;;;;6.20;1.67;;;20.60;17.10;;;;;;5110010;28;20062;-61
2022/09/06 09:32:39;;;;;;;4.82;1.55;;;20.40;17.40;;;;;;5097014;28;20396;-61
2022/09/06 09:35:23;;;;;;;;;;;20.50;17.20;;;;;;5089841;28;20044;-61
2022/09/06 09:38:06;;;;;;;2.65;1.80;;;20.30;17.10;;;;;;5107308;28;19962;-60
2022/09/06 09:40:38;;;;;;;3.47;1.80;;;20.30;17.40;;;;;;5069134;28;20027;-60
2022/09/06 09:43:32;;;;;;;2.15;1.23;;;20.20;17.80;;;;;;5096789;28;20499;-61
2022/09/06 09:46:13;;;;;;;6.45;1.38;;;20.40;17.50;;;;;;5063508;28;20042;-60
2022/09/06 09:48:41;;;;;;;2.08;1.17;;;20.50;17.80;;;;;;5107702;28;20458;-60
2022/09/06 09:51:20;;;;;;;8.35;1.67;;;20.70;17.90;;;;;;5090492;28;20032;-60
2022/09/06 09:53:53;;;;;;;5.90;1.65;;;20.70;17.30;;;;;;5085293;28;20040;-60
2022/09/06 09:56:28;;;;;;;2.65;1.33;;;20.80;16.90;;;;;;5078218;28;20027;-61
2022/09/06 09:58:56;;;;;;;5.75;1.60;;;21.10;17.50;;;;;;5088801;28;20032;-59
2022/09/06 10:01:27;;;;;;;4.45;1.60;;;21.30;16.70;;;;;;5109326;28;20138;-61
2022/09/06 10:04:00;;;;;;;2.85;1.77;;;21.50;15.50;;;;;;5109905;28;20038;-60
2022/09/06 10:06:26;;;;;;;3.75;1.38;;;21.60;16.20;;;;;;5067823;28;20036;-60
2022/09/06 10:08:53;;;;;;;6.15;1.75;;;21.70;15.90;;;;;;5109606;27;20019;-60
2022/09/06 10:11:47;;;;;;;3.40;1.75;;;21.70;15.10;;;;;;5089559;28;20057;-61
2022/09/06 10:14:39;;;;;;;6.03;1.60;;;21.50;16.20;;;;;;5068899;28;20059;-61
2022/09/06 10:17:04;;;;;;;6.00;1.52;;;21.50;16.00;;;;;;5107360;28;20845;-61
2022/09/06 10:19:36;;;;;;;3.70;1.70;;;21.60;15.70;;;;;;5109649;28;20030;-60
2022/09/06 10:22:22;;;;;;;3.50;1.75;;;21.50;15.90;;;;;;5076981;28;20016;-60
2022/09/06 10:25:25;;;;;;;5.25;1.77;;;21.60;15.60;;;;;;5104512;28;20061;-60
2022/09/06 10:28:15;;;;;;;2.15;1.60;;;21.50;15.20;;;;;;5087624;28;20028;-59
2022/09/06 10:31:01;;;;;;;5.57;1.45;;;21.50;15.20;;;;;;5068720;28;20060;-60
2022/09/06 10:33:52;;;;;;;4.50;1.75;;;21.50;15.50;;;;;;5100038;28;20510;-60
2022/09/06 10:36:32;;;;;;;9.23;1.98;;;21.50;15.50;;;;;;5068746;28;20033;-60
2022/09/06 10:39:13;;;;;;;2.45;1.60;;;21.60;14.90;;;;;;5068800;28;20496;-60
2022/09/06 10:42:10;;;;;;;3.50;1.50;;;21.70;15.00;;;;;;5069421;28;20377;-60
2022/09/06 10:44:48;;;;;;;8.50;1.95;;;21.90;14.20;;;;;;5094069;28;20032;-59
2022/09/06 10:47:14;;;;;;;6.60;2.10;;;21.70;14.80;;;;;;5079036;28;20026;-59
2022/09/06 10:49:45;;;;;;;4.60;2.28;;;21.60;14.30;;;;;;5107889;28;20032;-59
2022/09/06 10:52:16;;;;;;;4.78;1.75;;;21.70;14.80;;;;;;5076299;28;20023;-59
2022/09/06 10:54:45;;;;;;;4.65;1.85;;;21.70;14.00;;;;;;5106704;28;20031;-59
2022/09/06 10:57:19;;;;;;;4.82;1.77;;;21.70;14.50;;;;;;5089888;28;20034;-59
2022/09/06 10:59:52;;;;;;;3.95;2.45;;;21.80;14.70;;;;;;5108198;28;20427;-59
2022/09/06 11:02:36;;;;;;;2.80;2.00;;;21.70;14.90;;;;;;5078008;28;20051;-59
2022/09/06 11:05:13;;;;;;;4.43;2.30;;;21.60;14.60;;;;;;5088372;28;20027;-60
2022/09/06 11:07:44;;;;;;;3.67;2.30;;;21.70;14.70;;;;;;5086041;28;20472;-59
2022/09/06 11:10:31;;;;;;;4.50;2.17;;;21.70;14.20;;;;;;5090085;28;20032;-59
2022/09/06 11:13:22;;;;;;;3.67;2.47;;;21.70;14.50;;;;;;5093131;28;20027;-59
2022/09/06 11:15:54;;;;;;;3.75;2.30;;;21.60;14.60;;;;;;5072567;28;20024;-59
2022/09/06 11:18:37;;;;;;;5.32;2.50;;;21.70;14.80;;;;;;5110414;28;20028;-59
2022/09/06 11:21:32;;;;;;;3.17;2.40;;;21.60;14.60;;;;;;5072255;28;20530;-59
2022/09/06 11:24:09;;;;;;;3.55;2.05;;;21.70;14.60;;;;;;5107434;28;20027;-60
2022/09/06 11:26:59;;;;;;;3.65;2.38;;;21.70;14.50;;;;;;5072277;28;20095;-60
2022/09/06 11:29:26;;;;;;;6.53;2.40;;;21.90;14.20;;;;;;5072083;28;20480;-60
2022/09/06 11:31:53;;;;;;;4.35;2.58;;;21.80;14.10;;;;;;5109857;28;20035;-60
2022/09/06 11:34:23;;;;;;;3.08;2.08;;;21.70;14.60;;;;;;5106018;28;20117;-74
2022/09/06 11:36:51;;;;;;;3.63;2.10;;;21.80;14.30;;;;;;5091634;28;20020;-73
2022/09/06 11:39:29;;;;;;;4.18;2.05;;;21.90;14.70;;;;;;5112519;28;20089;-74
2022/09/06 11:41:55;;;;;;;3.72;1.65;;;21.90;13.90;;;;;;5073554;28;20024;-73
2022/09/06 11:44:49;;;;;;;3.00;1.85;;;21.90;13.70;;;;;;5112445;28;20028;-73
2022/09/06 11:47:37;;;;;;;3.38;1.95;;;21.90;13.10;;;;;;5094885;28;20026;-73
2022/09/06 11:50:23;;;;;;;4.57;2.30;;;21.90;13.80;;;;;;5097771;28;20024;-70
2022/09/06 11:52:54;;;;;;;5.10;2.57;;;21.80;12.00;;;;;;5109886;28;20035;-74
2022/09/06 11:55:24;;;;;;;6.25;2.10;;;21.80;13.30;;;;;;5092404;28;20626;-73
2022/09/06 11:57:55;;;;;;;3.33;1.90;;;21.90;12.50;;;;;;5110389;28;20024;-73
2022/09/06 12:00:23;;;;;;;9.80;2.38;;;22.00;12.80;;;;;;5092139;28;20035;-73
2022/09/06 12:02:49;;;;;;;4.18;1.90;;;22.10;12.60;;;;;;5099514;28;20068;-73
2022/09/06 12:05:21;;;;;;;3.60;2.05;;;22.30;13.00;;;;;;5091967;28;20039;-73
2022/09/06 12:08:21;;;;;;;4.07;2.28;;;22.40;12.30;;;;;;5086083;28;20102;-73
2022/09/06 12:11:02;;;;;;;3.20;2.22;;;22.40;12.60;;;;;;5091813;28;20036;-73
2022/09/06 12:13:45;;;;;;;3.63;2.25;;;22.40;12.50;;;;;;5097032;28;20054;-73
2022/09/06 12:16:12;;;;;;;5.32;2.20;;;22.30;12.80;;;;;;5112120;28;20039;-73
2022/09/06 12:18:46;;;;;;;8.18;2.55;;;22.30;12.80;;;;;;5089899;28;20047;-73
2022/09/06 12:21:37;;;;;;;3.95;2.40;;;22.30;13.00;;;;;;5110402;28;20155;-72
2022/09/06 12:24:04;;;;;;;3.83;2.33;;;22.20;12.90;;;;;;5086448;28;20148;-73
2022/09/06 12:26:51;;;;;;;2.40;1.85;;;22.20;12.60;;;;;;5109774;28;20031;-73
2022/09/06 12:29:25;;;;;;;2.80;2.10;;;22.30;12.80;;;;;;5109688;28;20032;-73
2022/09/06 12:31:54;;;;;;;5.00;2.03;;;22.40;11.70;;;;;;5071145;28;20039;-73
2022/09/06 12:34:23;;;;;;;3.47;1.80;;;22.30;11.70;;;;;;5099487;28;20044;-73
2022/09/06 12:37:03;;;;;;;2.53;2.10;;;22.20;11.90;;;;;;5110918;28;20115;-72
2022/09/06 12:39:30;;;;;;;5.03;2.55;;;22.30;12.70;;;;;;5110195;28;20028;-73
2022/09/06 12:42:10;;;;;;;4.25;1.85;;;22.20;12.60;;;;;;5089259;27;20031;-72
2022/09/06 12:44:50;;;;;;;5.32;1.83;;;22.20;12.10;;;;;;5111333;28;20023;-73
2022/09/06 12:47:23;;;;;;;6.55;1.92;;;22.30;12.40;;;;;;5074194;28;20547;-72
2022/09/06 12:50:17;;;;;;;3.03;1.80;;;22.20;12.20;;;;;;5111006;28;20395;-73
2022/09/06 12:52:51;;;;;;;5.30;2.40;;;22.30;12.10;;;;;;5095284;28;20024;-73
2022/09/06 12:55:27;;;;;;;6.55;1.98;;;22.30;12.40;;;;;;5111184;28;20044;-73
2022/09/06 12:57:55;;;;;;;3.85;1.83;;;22.30;12.40;;;;;;5096359;28;20110;-73
2022/09/06 13:00:23;;;;;;;5.55;1.50;;;22.40;11.70;;;;;;5111048;28;20087;-73
2022/09/06 13:02:55;;;;;;;4.13;1.92;;;22.40;11.80;;;;;;5093155;28;20020;-72
2022/09/06 13:05:21;;;;;;;4.68;2.10;;;22.40;12.00;;;;;;5110812;28;20027;-72
2022/09/06 13:07:52;;;;;;;4.30;1.92;;;22.30;12.00;;;;;;5095673;28;20023;-73